Time;durP1;ratioP1;P1;durP2;ratioP2;P2;SDS_P1;SDS_P2;PMS_P1;PMS_P2;Temp;Humidity;BMP_temperature;BMP_pressure;BME280_temperature;BME280_humidity;BME280_pressure;Samples;Min_cycle;Max_cycle;Signal;HPM_P1;HPM_P2
2023/04/25 00:02:03;;;;;;;15.30;6.30;;;7.80;99.90;;;;;;5034771;28;20225;-47
2023/04/25 00:04:29;;;;;;;16.33;6.33;;;7.80;99.90;;;;;;5034930;28;20183;-48
2023/04/25 00:06:55;;;;;;;22.37;6.00;;;7.60;99.90;;;;;;5035004;28;20719;-47
2023/04/25 00:09:21;;;;;;;15.93;6.07;;;7.60;99.90;;;;;;5034723;28;20421;-47
2023/04/25 00:11:47;;;;;;;18.97;6.37;;;7.60;99.90;;;;;;5034965;28;20412;-47
2023/04/25 00:14:13;;;;;;;13.30;6.33;;;7.50;99.90;;;;;;5034813;28;20513;-47
2023/04/25 00:16:38;;;;;;;18.43;6.00;;;7.60;99.90;;;;;;5034846;28;20187;-47
2023/04/25 00:19:04;;;;;;;26.83;6.10;;;7.50;99.90;;;;;;5034991;28;20256;-47
2023/04/25 00:21:31;;;;;;;15.60;6.37;;;7.50;99.90;;;;;;5034460;28;20189;-46
2023/04/25 00:23:57;;;;;;;37.97;7.17;;;7.50;99.90;;;;;;5034763;28;20467;-47
2023/04/25 00:26:22;;;;;;;18.17;6.00;;;7.40;99.90;;;;;;5034624;28;20434;-47
2023/04/25 00:28:48;;;;;;;21.33;5.80;;;7.40;99.90;;;;;;5034653;28;20190;-47
2023/04/25 00:31:14;;;;;;;34.53;7.20;;;7.40;99.90;;;;;;5034461;28;20183;-47
2023/04/25 00:33:39;;;;;;;31.13;5.63;;;7.40;99.90;;;;;;5034750;28;20187;-47
2023/04/25 00:36:06;;;;;;;32.63;6.10;;;7.40;99.90;;;;;;5035067;28;20293;-47
2023/04/25 00:38:31;;;;;;;30.83;5.97;;;7.30;99.90;;;;;;5034299;28;20179;-47
2023/04/25 00:40:57;;;;;;;28.43;5.60;;;7.20;99.90;;;;;;5034265;28;20417;-47
2023/04/25 00:43:25;;;;;;;24.70;5.17;;;7.20;99.90;;;;;;5034744;28;20214;-47
2023/04/25 00:45:53;;;;;;;31.53;6.60;;;7.20;99.90;;;;;;5034252;28;20184;-47
2023/04/25 00:48:20;;;;;;;20.13;5.47;;;7.10;99.90;;;;;;5033948;28;20473;-47
2023/04/25 00:50:55;;;;;;;21.67;5.50;;;7.10;99.90;;;;;;5034620;28;20416;-47
2023/04/25 00:53:25;;;;;;;32.90;6.07;;;7.00;99.90;;;;;;5033987;28;20464;-47
2023/04/25 00:55:51;;;;;;;21.97;5.37;;;7.00;99.90;;;;;;5034050;28;20421;-47
2023/04/25 00:58:17;;;;;;;32.57;5.60;;;6.90;92.00;;;;;;5034164;28;20445;-47
2023/04/25 01:00:46;;;;;;;27.93;7.00;;;6.90;87.80;;;;;;5034076;28;20190;-47
2023/04/25 01:03:12;;;;;;;16.53;5.00;;;7.00;93.30;;;;;;5034318;28;20553;-46
2023/04/25 01:05:41;;;;;;;35.93;6.93;;;7.00;89.20;;;;;;5033834;28;20425;-48
2023/04/25 01:08:07;;;;;;;24.20;4.53;;;7.00;74.60;;;;;;5033667;28;20476;-48
2023/04/25 01:10:32;;;;;;;32.87;6.00;;;7.00;52.10;;;;;;5033809;28;20978;-49
2023/04/25 01:12:58;;;;;;;27.47;6.30;;;7.00;75.00;;;;;;5034179;28;20183;-47
2023/04/25 01:15:24;;;;;;;33.63;6.00;;;7.00;1.00;;;;;;5033806;28;20223;-47
2023/04/25 01:17:49;;;;;;;29.83;7.03;;;7.00;1.00;;;;;;5033920;28;20184;-47
2023/04/25 01:20:15;;;;;;;26.37;5.80;;;7.00;1.00;;;;;;5033692;28;20197;-48
2023/04/25 01:22:42;;;;;;;26.37;5.43;;;6.90;1.00;;;;;;5034108;28;20206;-47
2023/04/25 01:25:08;;;;;;;21.23;5.60;;;7.00;1.00;;;;;;5033683;28;20429;-47
2023/04/25 01:27:35;;;;;;;29.13;6.17;;;6.90;1.00;;;;;;5033130;28;20423;-48
2023/04/25 01:30:01;;;;;;;17.33;4.87;;;6.90;1.00;;;;;;5033621;28;20410;-48
2023/04/25 01:32:26;;;;;;;27.50;6.40;;;6.90;1.00;;;;;;5033688;28;20964;-47
2023/04/25 01:34:52;;;;;;;27.73;5.97;;;6.90;1.00;;;;;;5033963;28;20262;-47
2023/04/25 01:37:18;;;;;;;23.30;5.80;;;6.90;1.00;;;;;;5033582;28;20862;-48
2023/04/25 01:39:44;;;;;;;32.67;6.57;;;6.80;1.00;;;;;;5033656;28;20229;-48
2023/04/25 01:42:10;;;;;;;31.27;5.70;;;6.90;1.00;;;;;;5033475;28;20219;-47
2023/04/25 01:44:35;;;;;;;20.53;5.70;;;6.80;1.00;;;;;;5033419;28;20449;-48
2023/04/25 01:47:01;;;;;;;23.60;5.97;;;6.70;1.00;;;;;;5033352;28;20214;-47
2023/04/25 01:49:27;;;;;;;29.37;5.67;;;6.70;1.00;;;;;;5033472;28;20507;-48
2023/04/25 01:51:52;;;;;;;25.80;5.50;;;6.70;1.00;;;;;;5033705;28;20213;-47
2023/04/25 01:54:18;;;;;;;30.63;6.33;;;6.60;1.00;;;;;;5033470;28;20207;-48
2023/04/25 01:56:51;;;;;;;22.80;6.47;;;6.70;1.00;;;;;;5033280;28;20663;-47
2023/04/25 01:59:18;;;;;;;25.17;5.20;;;6.60;1.00;;;;;;5033450;28;20402;-47
2023/04/25 02:01:43;;;;;;;21.80;5.63;;;6.60;1.00;;;;;;5033213;28;20498;-48
2023/04/25 02:04:09;;;;;;;27.30;5.27;;;6.50;99.90;;;;;;5033525;28;20552;-48
2023/04/25 02:06:34;;;;;;;32.13;6.20;;;6.50;99.90;;;;;;5033615;28;20219;-48
2023/04/25 02:09:00;;;;;;;26.87;6.00;;;6.50;99.90;;;;;;5037052;28;20267;-47
2023/04/25 02:11:25;;;;;;;28.57;5.90;;;6.60;1.00;;;;;;5036817;28;20181;-47
2023/04/25 02:13:51;;;;;;;28.57;5.67;;;6.50;1.00;;;;;;5037229;28;20274;-47
2023/04/25 02:16:18;;;;;;;22.13;6.37;;;6.50;1.00;;;;;;5036972;28;20210;-47
2023/04/25 02:18:44;;;;;;;23.13;5.33;;;6.50;65.40;;;;;;5036931;28;20188;-49
2023/04/25 02:21:11;;;;;;;28.40;6.33;;;6.50;1.00;;;;;;5037270;28;20417;-48
2023/04/25 02:23:37;;;;;;;27.83;5.60;;;6.50;1.00;;;;;;5036967;28;20961;-47
2023/04/25 02:26:03;;;;;;;25.37;5.33;;;6.40;1.00;;;;;;5037180;28;20417;-47
2023/04/25 02:28:28;;;;;;;24.67;5.80;;;6.40;1.00;;;;;;5037268;28;20418;-47
2023/04/25 02:30:54;;;;;;;36.47;7.27;;;6.40;99.90;;;;;;5036690;28;20231;-47
2023/04/25 02:33:20;;;;;;;25.07;5.23;;;6.40;1.00;;;;;;5036501;28;20237;-47
2023/04/25 02:35:46;;;;;;;22.27;5.40;;;6.50;99.90;;;;;;5036426;28;20692;-47
2023/04/25 02:38:12;;;;;;;34.20;5.87;;;6.40;99.90;;;;;;5037017;28;20444;-47
2023/04/25 02:40:37;;;;;;;27.90;5.50;;;6.40;1.00;;;;;;5036674;28;20179;-46
2023/04/25 02:43:03;;;;;;;26.07;5.00;;;6.40;99.90;;;;;;5036212;28;20338;-47
2023/04/25 02:45:28;;;;;;;22.40;5.40;;;6.40;1.00;;;;;;5036716;28;20237;-47
2023/04/25 02:47:54;;;;;;;29.73;5.50;;;6.30;1.00;;;;;;5036240;28;20239;-47
2023/04/25 02:50:20;;;;;;;18.13;5.10;;;6.30;49.80;;;;;;5036913;28;20527;-47
2023/04/25 02:52:45;;;;;;;14.93;4.13;;;6.30;1.00;;;;;;5036493;28;20240;-47
2023/04/25 02:55:12;;;;;;;24.40;5.63;;;6.30;99.90;;;;;;5036147;28;20175;-47
2023/04/25 02:57:37;;;;;;;25.50;5.57;;;6.30;1.00;;;;;;5036507;28;20183;-47
2023/04/25 03:00:05;;;;;;;24.03;4.70;;;6.30;1.00;;;;;;5036327;28;20417;-47
2023/04/25 03:02:30;;;;;;;23.40;5.93;;;6.30;20.50;;;;;;5036235;28;20212;-47
2023/04/25 03:04:56;;;;;;;18.27;4.50;;;6.20;99.90;;;;;;5036388;28;20933;-47
2023/04/25 03:07:21;;;;;;;23.93;4.90;;;6.30;1.00;;;;;;5036250;28;20184;-47
2023/04/25 03:09:47;;;;;;;26.10;5.80;;;6.20;99.90;;;;;;5036102;28;20175;-47
2023/04/25 03:12:12;;;;;;;30.50;5.57;;;6.10;99.90;;;;;;5035963;28;20177;-47
2023/04/25 03:14:38;;;;;;;21.87;4.77;;;6.00;99.90;;;;;;5036356;28;20207;-47
2023/04/25 03:17:04;;;;;;;18.93;4.10;;;6.00;99.90;;;;;;5035959;28;20620;-47
2023/04/25 03:19:30;;;;;;;28.13;6.87;;;5.90;99.90;;;;;;5035784;28;20226;-47
2023/04/25 03:21:55;;;;;;;16.73;4.90;;;5.90;99.90;;;;;;5035529;28;20283;-47
2023/04/25 03:24:21;;;;;;;16.50;3.83;;;5.90;35.80;;;;;;5035726;28;20532;-48
2023/04/25 03:26:47;;;;;;;17.83;5.27;;;5.90;18.40;;;;;;5035630;28;20647;-49
2023/04/25 03:29:13;;;;;;;16.30;4.83;;;5.80;7.80;;;;;;5035876;28;20187;-47
2023/04/25 03:31:38;;;;;;;20.27;5.37;;;5.70;1.00;;;;;;5035832;28;20206;-47
2023/04/25 03:34:04;;;;;;;20.40;4.20;;;5.70;1.00;;;;;;5035585;28;20234;-47
2023/04/25 03:36:29;;;;;;;23.17;5.07;;;5.60;1.00;;;;;;5035888;28;20178;-47
2023/04/25 03:38:55;;;;;;;15.77;4.20;;;5.60;1.00;;;;;;5035721;28;20245;-47
2023/04/25 03:41:21;;;;;;;21.53;4.90;;;5.60;1.00;;;;;;5035244;28;20182;-47
2023/04/25 03:43:46;;;;;;;20.47;4.80;;;5.60;1.00;;;;;;5035328;28;20221;-47
2023/04/25 03:46:12;;;;;;;29.70;6.23;;;5.60;1.00;;;;;;5035413;28;20187;-47
2023/04/25 03:48:37;;;;;;;16.83;4.60;;;5.60;1.00;;;;;;5034855;28;20293;-47
2023/04/25 03:51:03;;;;;;;19.53;4.60;;;5.50;1.00;;;;;;5035707;28;20230;-47
2023/04/25 03:53:28;;;;;;;15.27;4.00;;;5.50;1.00;;;;;;5035046;28;20511;-47
2023/04/25 03:55:54;;;;;;;13.80;4.03;;;5.50;1.00;;;;;;5035449;28;20184;-47
2023/04/25 03:58:20;;;;;;;20.53;4.60;;;5.50;1.00;;;;;;5035260;28;20530;-47
2023/04/25 04:00:45;;;;;;;20.83;4.27;;;5.50;1.00;;;;;;5035132;28;20650;-47
2023/04/25 04:03:11;;;;;;;26.13;4.03;;;5.60;1.00;;;;;;5035285;28;20211;-47
2023/04/25 04:05:37;;;;;;;17.97;4.13;;;5.50;1.00;;;;;;5034902;28;20188;-47
2023/04/25 04:08:02;;;;;;;21.30;4.33;;;5.60;1.00;;;;;;5035564;28;20210;-47
2023/04/25 04:10:28;;;;;;;33.03;4.67;;;5.50;1.00;;;;;;5034617;28;20183;-47
2023/04/25 04:12:54;;;;;;;26.23;4.43;;;5.50;1.00;;;;;;5035010;28;20190;-47
2023/04/25 04:15:19;;;;;;;17.40;4.57;;;5.40;1.00;;;;;;5035119;28;20573;-48
2023/04/25 04:17:46;;;;;;;21.00;4.20;;;5.40;1.00;;;;;;5034521;28;20186;-48
2023/04/25 04:20:12;;;;;;;22.10;4.00;;;5.40;1.00;;;;;;5034593;28;20196;-48
2023/04/25 04:22:37;;;;;;;16.53;3.80;;;5.40;1.00;;;;;;5034664;28;20523;-47
2023/04/25 04:25:05;;;;;;;22.17;4.17;;;5.30;1.00;;;;;;5034966;28;20189;-49
2023/04/25 04:27:31;;;;;;;22.37;4.73;;;5.30;1.00;;;;;;5034742;28;20187;-47
2023/04/25 04:29:57;;;;;;;11.70;4.00;;;5.30;1.00;;;;;;5034354;28;20468;-48
2023/04/25 04:32:23;;;;;;;10.30;3.93;;;5.30;1.00;;;;;;5034940;28;20422;-47
2023/04/25 04:34:49;;;;;;;23.47;4.60;;;5.30;1.00;;;;;;5034421;28;20635;-48
2023/04/25 04:37:14;;;;;;;21.57;4.00;;;5.30;1.00;;;;;;5034111;28;20522;-47
2023/04/25 04:39:40;;;;;;;14.73;4.03;;;5.30;1.00;;;;;;5034388;28;20187;-48
2023/04/25 04:42:06;;;;;;;17.43;3.50;;;5.30;1.00;;;;;;5034536;28;20178;-47
2023/04/25 04:44:32;;;;;;;16.60;3.70;;;5.40;1.00;;;;;;5034349;28;20514;-47
2023/04/25 04:46:58;;;;;;;19.03;4.03;;;5.40;1.00;;;;;;5034119;28;20513;-48
2023/04/25 04:49:24;;;;;;;27.33;5.50;;;5.50;1.00;;;;;;5034525;28;20191;-48
2023/04/25 04:51:50;;;;;;;14.60;4.30;;;5.60;1.00;;;;;;5034108;28;20414;-47
2023/04/25 04:54:15;;;;;;;13.60;3.80;;;5.60;1.00;;;;;;5034069;28;20183;-47
2023/04/25 04:56:41;;;;;;;11.90;3.10;;;5.70;1.00;;;;;;5033772;28;20534;-48
2023/04/25 04:59:07;;;;;;;23.53;3.97;;;5.70;1.00;;;;;;5034369;28;20187;-48
2023/04/25 05:01:35;;;;;;;17.07;3.80;;;5.80;1.00;;;;;;5033622;28;20422;-47
2023/04/25 05:04:00;;;;;;;14.77;3.73;;;5.80;1.00;;;;;;5034157;28;20215;-47
2023/04/25 05:06:28;;;;;;;17.80;3.80;;;5.80;1.00;;;;;;5034114;28;20472;-47
2023/04/25 05:08:54;;;;;;;18.40;3.30;;;6.10;1.00;;;;;;5033554;28;20246;-47
2023/04/25 05:11:20;;;;;;;11.63;3.47;;;5.90;1.00;;;;;;5033691;28;20426;-47
2023/04/25 05:13:46;;;;;;;15.73;3.33;;;5.90;1.00;;;;;;5034021;28;20241;-47
2023/04/25 05:16:12;;;;;;;19.17;4.57;;;5.80;1.00;;;;;;5033536;28;20519;-47
2023/04/25 05:18:39;;;;;;;20.60;4.10;;;5.80;1.00;;;;;;5034000;28;20226;-47
2023/04/25 05:21:05;;;;;;;12.07;3.70;;;5.70;1.00;;;;;;5033846;28;20568;-47
2023/04/25 05:23:32;;;;;;;17.27;3.83;;;5.80;1.00;;;;;;5033849;28;20556;-47
2023/04/25 05:25:58;;;;;;;15.53;3.30;;;5.80;1.00;;;;;;5033849;28;20565;-47
2023/04/25 05:28:24;;;;;;;10.40;3.13;;;5.80;1.00;;;;;;5033329;28;20429;-48
2023/04/25 05:30:49;;;;;;;14.77;3.50;;;5.80;1.00;;;;;;5033523;28;20414;-47
2023/04/25 05:33:15;;;;;;;18.33;3.83;;;5.90;1.00;;;;;;5033709;28;20219;-49
2023/04/25 05:35:41;;;;;;;22.13;4.40;;;6.00;1.00;;;;;;5032161;28;20245;-48
2023/04/25 05:38:06;;;;;;;19.40;4.20;;;6.10;1.00;;;;;;5034029;28;20181;-48
2023/04/25 05:40:32;;;;;;;11.03;3.10;;;6.10;1.00;;;;;;5033271;28;20509;-48
2023/04/25 05:42:58;;;;;;;22.00;4.20;;;6.10;1.00;;;;;;5033664;28;20269;-47
2023/04/25 05:45:23;;;;;;;20.47;4.30;;;6.20;1.00;;;;;;5033658;28;20192;-47
2023/04/25 05:47:49;;;;;;;16.47;4.57;;;6.30;1.00;;;;;;5033502;28;20318;-47
2023/04/25 05:50:15;;;;;;;22.60;4.47;;;6.30;1.00;;;;;;5033622;28;20263;-47
2023/04/25 05:52:40;;;;;;;15.07;4.20;;;6.30;1.00;;;;;;5033153;28;20680;-47
2023/04/25 05:55:06;;;;;;;17.80;3.30;;;6.40;1.00;;;;;;5033776;28;20187;-47
2023/04/25 05:57:32;;;;;;;16.77;4.50;;;6.50;1.00;;;;;;5033733;28;20643;-47
2023/04/25 05:59:57;;;;;;;13.57;3.33;;;6.60;1.00;;;;;;5033517;28;20691;-48
2023/04/25 06:02:23;;;;;;;22.70;3.63;;;6.70;1.00;;;;;;5033268;28;20176;-47
2023/04/25 06:04:50;;;;;;;12.47;4.10;;;6.70;1.00;;;;;;5033371;28;20190;-48
2023/04/25 06:07:16;;;;;;;8.80;3.20;;;6.80;1.00;;;;;;5033613;28;20216;-48
2023/04/25 06:09:43;;;;;;;13.53;3.57;;;6.80;1.00;;;;;;5033540;28;20410;-47
2023/04/25 06:12:08;;;;;;;23.83;3.53;;;6.80;1.00;;;;;;5032997;28;20894;-47
2023/04/25 06:14:34;;;;;;;15.93;4.57;;;6.90;1.00;;;;;;5033282;28;20414;-49
2023/04/25 06:17:06;;;;;;;14.60;4.77;;;6.80;1.00;;;;;;5033076;28;20183;-49
2023/04/25 06:19:40;;;;;;;7.73;3.10;;;6.80;1.00;;;;;;5033285;28;20176;-49
2023/04/25 06:22:08;;;;;;;25.50;3.67;;;6.80;1.00;;;;;;5033671;28;20479;-48
2023/04/25 06:24:34;;;;;;;11.20;3.03;;;6.80;1.00;;;;;;5033238;28;20458;-50
2023/04/25 06:27:00;;;;;;;14.87;3.37;;;6.80;1.00;;;;;;5033197;28;20512;-48
2023/04/25 06:29:26;;;;;;;17.27;5.33;;;6.80;1.00;;;;;;5032956;28;20898;-48
2023/04/25 06:31:52;;;;;;;18.10;3.30;;;6.90;1.00;;;;;;5033396;28;20454;-49
2023/04/25 06:34:17;;;;;;;10.53;3.33;;;6.90;1.00;;;;;;5032874;28;20180;-48
2023/04/25 06:36:44;;;;;;;21.00;3.50;;;6.90;1.00;;;;;;5032546;28;20245;-48
2023/04/25 06:39:10;;;;;;;12.23;3.50;;;6.80;1.00;;;;;;5033001;28;20190;-48
2023/04/25 06:41:36;;;;;;;17.33;3.20;;;6.90;1.00;;;;;;5033223;28;20464;-48
2023/04/25 06:44:01;;;;;;;12.03;3.33;;;7.00;1.00;;;;;;5032814;28;20938;-48
2023/04/25 06:46:27;;;;;;;12.90;2.97;;;7.10;1.00;;;;;;5032467;28;20318;-48
2023/04/25 06:48:52;;;;;;;20.20;3.90;;;7.20;1.00;;;;;;5032532;28;20636;-49
2023/04/25 06:51:18;;;;;;;14.47;3.70;;;7.30;1.00;;;;;;5033010;28;20225;-49
2023/04/25 06:53:44;;;;;;;17.73;3.40;;;7.50;1.00;;;;;;5034463;28;20526;-49
2023/04/25 06:56:09;;;;;;;10.80;3.40;;;7.60;1.00;;;;;;5035958;28;20237;-50
2023/04/25 06:58:35;;;;;;;14.80;3.17;;;7.80;1.00;;;;;;5036071;28;20194;-49
2023/04/25 07:01:01;;;;;;;17.43;3.23;;;7.90;1.00;;;;;;5036248;28;20433;-49
2023/04/25 07:03:26;;;;;;;16.40;3.83;;;8.00;1.00;;;;;;5036382;28;20268;-48
2023/04/25 07:05:52;;;;;;;14.10;3.07;;;8.20;1.00;;;;;;5036414;28;20191;-49
2023/04/25 07:08:17;;;;;;;8.33;2.80;;;8.30;1.00;;;;;;5036128;28;20185;-48
2023/04/25 07:10:43;;;;;;;24.80;4.00;;;8.30;1.00;;;;;;5036276;28;20210;-49
2023/04/25 07:13:08;;;;;;;8.80;2.60;;;8.20;1.00;;;;;;5036154;28;20195;-48
2023/04/25 07:15:35;;;;;;;13.20;2.87;;;8.20;1.00;;;;;;5035685;28;20230;-49
2023/04/25 07:18:00;;;;;;;10.33;3.83;;;8.30;1.00;;;;;;5036201;28;20226;-49
2023/04/25 07:20:27;;;;;;;15.53;2.90;;;8.20;1.00;;;;;;5035950;28;20788;-49
2023/04/25 07:22:53;;;;;;;19.40;3.20;;;8.10;1.00;;;;;;5035972;28;20268;-49
2023/04/25 07:25:19;;;;;;;8.63;2.83;;;8.00;1.00;;;;;;5036331;28;20414;-49
2023/04/25 07:27:44;;;;;;;10.57;2.50;;;7.90;1.00;;;;;;5036166;28;20186;-49
2023/04/25 07:30:10;;;;;;;16.80;2.77;;;7.70;1.00;;;;;;5035392;28;20420;-49
2023/04/25 07:32:36;;;;;;;12.73;2.47;;;7.60;1.00;;;;;;5035834;28;20187;-48
2023/04/25 07:35:03;;;;;;;14.57;3.17;;;7.50;1.00;;;;;;5035721;28;20414;-49
2023/04/25 07:37:28;;;;;;;17.40;2.90;;;7.50;1.00;;;;;;5035640;28;20283;-49
2023/04/25 07:39:54;;;;;;;12.63;3.30;;;7.60;1.00;;;;;;5035610;28;20457;-49
2023/04/25 07:42:21;;;;;;;13.63;2.30;;;7.90;1.00;;;;;;5035741;28;20187;-49
2023/04/25 07:44:47;;;;;;;13.40;3.17;;;8.10;1.00;;;;;;5035740;28;20191;-49
2023/04/25 07:47:13;;;;;;;22.07;3.53;;;8.20;1.00;;;;;;5035690;28;20556;-49
2023/04/25 07:49:39;;;;;;;14.03;2.97;;;8.30;1.00;;;;;;5035263;28;20410;-49
2023/04/25 07:52:05;;;;;;;15.10;3.20;;;8.60;1.00;;;;;;5035818;28;20425;-49
2023/04/25 07:54:32;;;;;;;11.50;2.43;;;9.00;1.00;;;;;;5035452;28;20278;-49
2023/04/25 07:56:57;;;;;;;8.87;2.60;;;9.30;1.00;;;;;;5035523;28;20847;-49
2023/04/25 07:59:23;;;;;;;9.77;2.87;;;9.50;1.00;;;;;;5035591;28;20510;-49
2023/04/25 08:01:49;;;;;;;19.40;3.10;;;9.50;1.00;;;;;;5035491;28;20182;-49
2023/04/25 08:04:14;;;;;;;11.07;2.60;;;9.60;1.00;;;;;;5034158;28;20259;-50
2023/04/25 08:06:40;;;;;;;9.73;2.70;;;9.40;1.00;;;;;;5034878;28;20202;-49
2023/04/25 08:09:06;;;;;;;6.90;2.30;;;9.30;1.00;;;;;;5034858;28;20176;-49
2023/04/25 08:11:32;;;;;;;6.90;2.50;;;9.30;1.00;;;;;;5035078;28;20202;-49
2023/04/25 08:13:58;;;;;;;9.97;2.80;;;9.20;1.00;;;;;;5034867;28;20910;-49
2023/04/25 08:16:23;;;;;;;12.80;2.67;;;9.10;1.00;;;;;;5035033;28;20179;-49
2023/04/25 08:18:50;;;;;;;19.17;3.07;;;9.10;1.00;;;;;;5035290;28;20241;-48
2023/04/25 08:21:15;;;;;;;9.87;2.10;;;9.00;1.00;;;;;;5034875;28;20650;-48
2023/04/25 08:23:41;;;;;;;4.87;2.30;;;9.00;1.00;;;;;;5034692;28;20500;-50
2023/04/25 08:26:07;;;;;;;13.67;2.60;;;8.80;1.00;;;;;;5035026;28;20241;-49
2023/04/25 08:28:32;;;;;;;9.50;2.50;;;9.10;1.00;;;;;;5034620;28;20303;-49
2023/04/25 08:30:58;;;;;;;10.23;2.20;;;9.70;1.00;;;;;;5034673;28;20191;-49
2023/04/25 08:33:24;;;;;;;10.83;2.43;;;10.20;1.00;;;;;;5034615;28;20184;-49
2023/04/25 08:35:49;;;;;;;16.43;2.90;;;10.30;1.00;;;;;;5034783;28;20266;-49
2023/04/25 08:38:15;;;;;;;13.40;2.37;;;9.90;1.00;;;;;;5034289;28;20179;-49
2023/04/25 08:40:42;;;;;;;12.77;2.70;;;9.50;1.00;;;;;;5034653;28;20214;-49
2023/04/25 08:43:11;;;;;;;10.30;2.27;;;9.30;1.00;;;;;;5034217;28;20747;-49
2023/04/25 08:45:42;;;;;;;10.23;2.60;;;9.50;1.00;;;;;;5034351;28;20434;-49
2023/04/25 08:48:12;;;;;;;9.23;2.73;;;9.80;1.00;;;;;;5033903;28;20522;-49
2023/04/25 08:50:52;;;;;;;10.13;2.83;;;10.20;1.00;;;;;;5034598;28;20484;-49
2023/04/25 08:53:36;;;;;;;7.90;2.43;;;10.10;1.00;;;;;;5034094;28;20489;-49
2023/04/25 08:56:02;;;;;;;9.80;2.00;;;10.00;1.00;;;;;;5034210;28;20403;-50
2023/04/25 08:58:28;;;;;;;12.23;2.40;;;9.80;1.00;;;;;;5034525;28;20422;-49
2023/04/25 09:00:54;;;;;;;7.97;2.17;;;9.90;1.00;;;;;;5033772;28;20480;-50
2023/04/25 09:03:19;;;;;;;9.97;2.50;;;10.10;1.00;;;;;;5027267;28;20440;-52
2023/04/25 09:05:45;;;;;;;7.73;2.63;;;10.30;1.00;;;;;;5029224;28;20188;-50
2023/04/25 09:08:11;;;;;;;7.60;1.87;;;10.10;1.00;;;;;;5034311;28;20183;-49
2023/04/25 09:10:37;;;;;;;11.30;3.23;;;9.60;1.00;;;;;;5034161;28;20186;-49
2023/04/25 09:13:10;;;;;;;5.23;1.87;;;9.40;1.00;;;;;;5033545;28;20188;-50
2023/04/25 09:15:53;;;;;;;12.77;2.13;;;9.10;1.00;;;;;;5033378;28;20422;-50
2023/04/25 09:18:29;;;;;;;9.02;1.90;;;9.10;1.00;;;;;;5033730;28;20426;-49
2023/04/25 09:20:58;;;;;;;11.90;2.33;;;9.00;1.00;;;;;;5034004;28;20187;-50
2023/04/25 09:23:23;;;;;;;6.87;1.90;;;9.00;1.00;;;;;;5033629;28;20480;-50
2023/04/25 09:25:51;;;;;;;14.57;2.93;;;9.10;1.00;;;;;;5034172;28;20894;-50
2023/04/25 09:28:22;;;;;;;10.33;2.00;;;9.50;1.00;;;;;;5033990;28;20194;-50
2023/04/25 09:30:48;;;;;;;13.37;2.57;;;9.90;1.00;;;;;;5033695;28;20398;-51
2023/04/25 09:33:13;;;;;;;9.83;1.80;;;10.10;1.00;;;;;;5033433;28;20768;-50
2023/04/25 09:35:42;;;;;;;8.83;2.10;;;10.40;1.00;;;;;;5033867;28;20233;-50
2023/04/25 09:38:12;;;;;;;18.57;2.20;;;10.50;1.00;;;;;;5033774;28;20619;-49
2023/04/25 09:40:45;;;;;;;12.88;2.20;;;9.50;1.00;;;;;;5033220;28;20405;-50
2023/04/25 09:43:19;;;;;;;16.00;3.50;;;8.50;1.00;;;;;;5033336;28;20325;-50
2023/04/25 09:45:46;;;;;;;17.33;4.63;;;8.20;1.00;;;;;;5033936;28;20454;-50
2023/04/25 09:48:23;;;;;;;10.60;1.90;;;8.20;1.00;;;;;;5033147;28;20557;-50
2023/04/25 09:51:05;;;;;;;7.83;2.60;;;8.50;1.00;;;;;;5033313;28;20405;-50
2023/04/25 09:53:31;;;;;;;7.40;2.10;;;8.90;1.00;;;;;;5033161;28;20429;-50
2023/04/25 09:56:00;;;;;;;8.67;2.40;;;9.30;1.00;;;;;;5033860;28;20189;-50
2023/04/25 09:58:29;;;;;;;3.90;1.50;;;9.60;1.00;;;;;;5033499;28;20426;-50
2023/04/25 10:01:00;;;;;;;10.27;2.03;;;9.90;1.00;;;;;;5033257;28;20410;-50
2023/04/25 10:03:26;;;;;;;12.93;2.40;;;10.00;1.00;;;;;;5033300;28;20458;-50
2023/04/25 10:05:53;;;;;;;7.67;2.67;;;10.00;1.00;;;;;;5033342;28;20455;-50
2023/04/25 10:08:20;;;;;;;9.43;2.20;;;10.20;1.00;;;;;;5033055;28;20417;-50
2023/04/25 10:10:46;;;;;;;6.87;2.10;;;10.80;1.00;;;;;;5033396;28;20422;-51
2023/04/25 10:13:14;;;;;;;12.67;2.50;;;11.20;1.00;;;;;;5033450;28;20422;-51
2023/04/25 10:15:41;;;;;;;5.77;1.70;;;11.80;1.00;;;;;;5033124;28;20472;-51
2023/04/25 10:18:07;;;;;;;8.15;2.00;;;11.80;1.00;;;;;;5032382;28;20917;-51
2023/04/25 10:20:33;;;;;;;8.00;1.97;;;11.10;1.00;;;;;;5033159;28;20187;-51
2023/04/25 10:23:08;;;;;;;10.93;2.03;;;10.60;1.00;;;;;;5033086;28;20458;-51
2023/04/25 10:25:34;;;;;;;8.40;2.00;;;10.10;1.00;;;;;;5033497;28;20472;-50
2023/04/25 10:28:02;;;;;;;7.70;1.43;;;10.00;1.00;;;;;;5034030;28;20801;-50
2023/04/25 10:30:27;;;;;;;5.93;1.80;;;10.40;1.00;;;;;;5037019;28;20965;-51
2023/04/25 10:32:55;;;;;;;7.53;2.47;;;10.90;1.00;;;;;;5036706;28;20518;-50
2023/04/25 10:35:28;;;;;;;10.50;1.80;;;11.40;1.00;;;;;;5036993;28;20266;-52
2023/04/25 10:38:00;;;;;;;7.03;1.80;;;11.80;1.00;;;;;;5037136;28;20456;-50
2023/04/25 10:40:26;;;;;;;12.47;1.90;;;12.00;1.00;;;;;;5036540;28;20777;-51
2023/04/25 10:42:56;;;;;;;14.97;2.23;;;11.90;1.00;;;;;;5036177;28;20869;-51
2023/04/25 10:45:22;;;;;;;9.33;2.10;;;12.40;1.00;;;;;;5036300;28;20445;-52
2023/04/25 10:47:48;;;;;;;9.23;2.10;;;13.10;1.00;;;;;;5035308;28;20430;-51
2023/04/25 10:50:16;;;;;;;11.27;2.27;;;13.20;1.00;;;;;;5036289;28;20199;-51
2023/04/25 10:52:42;;;;;;;8.20;1.93;;;13.20;1.00;;;;;;5036588;28;20714;-51
2023/04/25 10:55:08;;;;;;;9.03;2.27;;;12.10;1.00;;;;;;5036621;28;20474;-52
2023/04/25 10:57:37;;;;;;;11.33;2.33;;;11.60;1.00;;;;;;5036352;28;20492;-51
2023/04/25 11:00:21;;;;;;;7.60;2.00;;;11.20;1.00;;;;;;5036259;28;20636;-51
2023/04/25 11:02:58;;;;;;;11.40;2.30;;;10.60;1.00;;;;;;5036362;28;20435;-53
2023/04/25 11:05:33;;;;;;;7.50;2.40;;;10.50;1.00;;;;;;5036209;28;20415;-51
2023/04/25 11:07:59;;;;;;;7.30;1.63;;;11.00;1.00;;;;;;5036297;28;20433;-52
2023/04/25 11:10:30;;;;;;;9.37;1.90;;;11.60;1.00;;;;;;5036158;28;20417;-50
2023/04/25 11:12:56;;;;;;;7.30;1.77;;;11.80;1.00;;;;;;5036010;28;20407;-52
2023/04/25 11:15:22;;;;;;;13.77;2.00;;;12.00;1.00;;;;;;5035824;28;20407;-51
2023/04/25 11:17:48;;;;;;;6.63;1.93;;;12.70;1.00;;;;;;5035731;28;20484;-52
2023/04/25 11:20:15;;;;;;;7.97;2.00;;;12.80;1.00;;;;;;5035370;28;20441;-51
2023/04/25 11:22:43;;;;;;;13.03;2.20;;;13.00;1.00;;;;;;5035632;28;20529;-52
2023/04/25 11:25:11;;;;;;;9.60;2.00;;;13.30;1.00;;;;;;5035978;28;20770;-51
2023/04/25 11:28:02;;;;;;;13.27;1.70;;;12.90;1.00;;;;;;5035489;28;20438;-50
2023/04/25 11:30:30;;;;;;;7.87;1.60;;;13.10;1.00;;;;;;5034646;28;20843;-53
2023/04/25 11:32:56;;;;;;;6.50;1.50;;;12.70;1.00;;;;;;5035524;28;20516;-50
2023/04/25 11:35:25;;;;;;;9.40;1.70;;;11.00;1.00;;;;;;5035675;28;20417;-51
2023/04/25 11:37:51;;;;;;;7.67;1.90;;;9.90;1.00;;;;;;5035608;28;20250;-50
2023/04/25 11:40:17;;;;;;;6.10;1.77;;;9.50;1.00;;;;;;5066972;28;20934;-52
2023/04/25 11:42:47;;;;;;;5.77;1.67;;;9.10;1.00;;;;;;5067080;28;20440;-52
2023/04/25 11:45:14;;;;;;;9.43;1.63;;;9.20;1.00;;;;;;5067350;28;20431;-51
2023/04/25 11:47:40;;;;;;;2.80;1.10;;;10.40;1.00;;;;;;5035615;28;20470;-52
2023/04/25 11:50:07;;;;;;;3.93;1.60;;;12.00;1.00;;;;;;5035113;28;20453;-52
2023/04/25 11:52:36;;;;;;;5.23;1.57;;;13.20;1.00;;;;;;5035142;28;20179;-53
2023/04/25 11:55:06;;;;;;;5.63;1.20;;;14.00;1.00;;;;;;5035466;28;20531;-54
2023/04/25 11:57:32;;;;;;;3.77;1.70;;;14.70;1.00;;;;;;5035564;28;20738;-52
2023/04/25 12:00:12;;;;;;;4.40;1.43;;;15.40;1.00;;;;;;5034980;28;20415;-54
2023/04/25 12:02:44;;;;;;;3.40;1.20;;;16.00;1.00;;;;;;5035032;28;20171;-54
2023/04/25 12:05:12;;;;;;;4.87;1.30;;;15.80;1.00;;;;;;5035268;28;20913;-53
2023/04/25 12:07:38;;;;;;;5.13;1.67;;;15.10;1.00;;;;;;5034610;28;20434;-51
2023/04/25 12:10:11;;;;;;;7.87;2.13;;;14.50;1.00;;;;;;5034834;28;20836;-52
2023/04/25 12:12:40;;;;;;;4.13;1.37;;;13.90;1.00;;;;;;5034884;28;20422;-53
2023/04/25 12:15:10;;;;;;;4.17;1.20;;;13.40;1.00;;;;;;5035060;28;20441;-52
2023/04/25 12:17:38;;;;;;;5.40;1.27;;;12.40;1.00;;;;;;5035173;28;20421;-52
2023/04/25 12:20:12;;;;;;;8.70;1.60;;;11.60;1.00;;;;;;5034856;28;20414;-52
2023/04/25 12:22:40;;;;;;;4.20;1.53;;;11.90;1.00;;;;;;5034762;28;20978;-52
2023/04/25 12:25:07;;;;;;;3.87;1.60;;;12.20;1.00;;;;;;5034795;28;20772;-52
2023/04/25 12:27:33;;;;;;;6.37;1.53;;;12.90;1.00;;;;;;5034629;28;20421;-52
2023/04/25 12:29:59;;;;;;;10.33;1.50;;;13.30;1.00;;;;;;5066710;28;20452;-53
2023/04/25 12:32:26;;;;;;;4.87;1.47;;;13.80;1.00;;;;;;5034572;28;20906;-54
2023/04/25 12:34:51;;;;;;;5.10;1.50;;;13.90;1.00;;;;;;5034606;28;20192;-54
2023/04/25 12:37:17;;;;;;;6.93;1.50;;;13.70;1.00;;;;;;5034781;28;20424;-53
2023/04/25 12:39:43;;;;;;;6.37;1.60;;;13.60;1.00;;;;;;5034492;28;20182;-53
2023/04/25 12:42:11;;;;;;;7.53;1.67;;;13.20;1.00;;;;;;5034363;28;20624;-52
2023/04/25 12:44:37;;;;;;;9.20;2.07;;;12.40;1.00;;;;;;5034700;28;20301;-53
2023/04/25 12:47:03;;;;;;;7.43;1.63;;;11.70;1.00;;;;;;5034396;28;20418;-53
2023/04/25 12:49:28;;;;;;;7.50;2.03;;;12.00;1.00;;;;;;5034230;28;20402;-54
2023/04/25 12:51:54;;;;;;;12.47;2.07;;;11.60;1.00;;;;;;5033456;28;20172;-53
2023/04/25 12:54:20;;;;;;;10.03;2.00;;;11.70;1.00;;;;;;5034548;28;20271;-53